createdAt,value
2018-04-01T00:00:24.174Z,20.36
2018-04-01T00:01:24.178Z,20.13
2018-04-01T00:02:24.194Z,20.18
2018-04-01T00:03:24.175Z,20.32
2018-04-01T00:04:24.180Z,20.12
2018-04-01T00:05:24.167Z,20.12
2018-04-01T00:06:24.161Z,20.29
2018-04-01T00:07:24.179Z,20.11
2018-04-01T00:08:24.170Z,20.12
2018-04-01T00:09:24.192Z,20.3
2018-04-01T00:10:24.143Z,20.12
2018-04-01T00:11:24.154Z,20.12
2018-04-01T00:12:24.194Z,20.26
2018-04-01T00:13:24.178Z,20.09
2018-04-01T00:14:24.186Z,20.15
2018-04-01T00:15:24.741Z,20.3
2018-04-01T00:16:24.160Z,20.08
2018-04-01T00:17:24.178Z,20.13
2018-04-01T00:18:24.167Z,20.3
2018-04-01T00:19:24.204Z,20.06
2018-04-01T00:20:24.180Z,20.08
2018-04-01T00:21:24.146Z,20.24
2018-04-01T00:22:24.172Z,20.06
2018-04-01T00:23:24.160Z,20.11
2018-04-01T00:24:24.206Z,20.27
2018-04-01T00:25:24.244Z,20.06
2018-04-01T00:26:24.181Z,20.11
2018-04-01T00:27:24.150Z,20.27
2018-04-01T00:28:24.161Z,20.06
2018-04-01T00:29:24.172Z,20.08
2018-04-01T00:30:24.176Z,20.24
2018-04-01T00:31:24.148Z,20.03
2018-04-01T00:32:24.166Z,20.06
2018-04-01T00:33:24.173Z,20.21
2018-04-01T00:34:24.139Z,20.03
2018-04-01T00:35:24.167Z,20.06
2018-04-01T00:36:24.140Z,20.24
2018-04-01T00:37:24.170Z,20.04
2018-04-01T00:38:24.196Z,20.06
2018-04-01T00:39:24.167Z,20.21
2018-04-01T00:40:24.199Z,20.01
2018-04-01T00:41:24.161Z,20.06
2018-04-01T00:42:24.140Z,20.21
2018-04-01T00:43:24.159Z,20
2018-04-01T00:44:24.139Z,20
2018-04-01T00:45:24.154Z,20.19
2018-04-01T00:46:24.235Z,20
2018-04-01T00:47:24.162Z,20.03
2018-04-01T00:48:24.143Z,20.18
2018-04-01T00:49:24.146Z,19.98
2018-04-01T00:50:24.142Z,20.01
2018-04-01T00:51:24.197Z,20.17
2018-04-01T00:52:24.164Z,19.99
2018-04-01T00:53:24.160Z,20.02
2018-04-01T00:54:24.134Z,20.16
2018-04-01T00:55:24.180Z,19.98
2018-04-01T00:56:24.134Z,20
2018-04-01T00:57:24.136Z,20.13
2018-04-01T00:58:24.152Z,19.96
2018-04-01T00:59:24.158Z,20
2018-04-01T01:00:24.164Z,20.19
2018-04-01T01:01:24.139Z,19.96
2018-04-01T01:02:24.152Z,19.99
2018-04-01T01:03:24.142Z,20.16
2018-04-01T01:04:24.145Z,19.94
2018-04-01T01:05:24.154Z,19.98
2018-04-01T01:06:24.140Z,20.12
2018-04-01T01:07:24.152Z,19.94
2018-04-01T01:08:24.136Z,19.98
2018-04-01T01:09:24.177Z,20.12
2018-04-01T01:10:24.408Z,19.94
2018-04-01T01:11:24.189Z,19.94
2018-04-01T01:12:24.137Z,20.08
2018-04-01T01:13:24.147Z,19.91
2018-04-01T01:14:24.127Z,19.95
2018-04-01T01:15:24.185Z,20.11
2018-04-01T01:16:24.143Z,19.92
2018-04-01T01:17:24.186Z,19.95
2018-04-01T01:18:24.119Z,20.08
2018-04-01T01:19:24.162Z,19.92
2018-04-01T01:20:24.541Z,19.94
2018-04-01T01:21:24.153Z,20.09
2018-04-01T01:22:24.132Z,19.91
2018-04-01T01:23:24.138Z,19.95
2018-04-01T01:24:24.137Z,20.11
2018-04-01T01:25:24.171Z,19.91
2018-04-01T01:26:24.157Z,19.91
2018-04-01T01:27:24.144Z,20.07
2018-04-01T01:28:24.132Z,19.9
2018-04-01T01:29:24.128Z,19.93
2018-04-01T01:30:24.186Z,20.09
2018-04-01T01:31:24.127Z,19.91
2018-04-01T01:32:24.144Z,19.94
2018-04-01T01:33:24.161Z,20.07
2018-04-01T01:34:24.121Z,19.88
2018-04-01T01:35:24.160Z,19.89
2018-04-01T01:36:24.109Z,20.07
2018-04-01T01:37:24.151Z,19.88
2018-04-01T01:38:24.157Z,19.91
2018-04-01T01:39:24.109Z,20.08
2018-04-01T01:40:24.148Z,19.88
2018-04-01T01:41:24.122Z,19.89
2018-04-01T01:42:24.123Z,20.05
2018-04-01T01:43:24.145Z,19.86
2018-04-01T01:44:24.126Z,19.87
2018-04-01T01:45:24.138Z,20.04
2018-04-01T01:46:24.107Z,19.86
2018-04-01T01:47:24.121Z,19.88
2018-04-01T01:48:24.230Z,20.02
2018-04-01T01:49:24.118Z,19.83
2018-04-01T01:50:24.146Z,19.84
2018-04-01T01:51:24.147Z,20.01
2018-04-01T01:52:24.139Z,19.84
2018-04-01T01:53:24.238Z,19.88
2018-04-01T01:54:24.209Z,20
2018-04-01T01:55:24.124Z,19.83
2018-04-01T01:56:24.142Z,19.87
2018-04-01T01:57:24.166Z,20.01
2018-04-01T01:58:24.145Z,19.82
2018-04-01T01:59:24.126Z,19.88
2018-04-01T02:00:24.154Z,20.02
2018-04-01T02:01:24.136Z,19.81
2018-04-01T02:02:24.128Z,19.86
2018-04-01T02:03:24.139Z,20
2018-04-01T02:04:24.145Z,19.82
2018-04-01T02:05:24.137Z,19.85
2018-04-01T02:06:24.149Z,20.02
2018-04-01T02:07:24.107Z,19.81
2018-04-01T02:08:24.146Z,19.81
2018-04-01T02:09:24.138Z,20
2018-04-01T02:10:24.153Z,19.81
2018-04-01T02:11:24.136Z,19.83
2018-04-01T02:12:24.194Z,19.96
2018-04-01T02:13:24.119Z,19.78
2018-04-01T02:14:24.117Z,19.81
2018-04-01T02:15:24.168Z,19.98
2018-04-01T02:16:24.120Z,19.82
2018-04-01T02:17:24.129Z,19.8
2018-04-01T02:18:24.140Z,19.97
2018-04-01T02:19:24.208Z,19.81
2018-04-01T02:20:24.148Z,19.78
2018-04-01T02:21:24.132Z,19.97
2018-04-01T02:22:24.135Z,19.76
2018-04-01T02:23:24.127Z,19.79
2018-04-01T02:24:24.133Z,19.95
2018-04-01T02:25:24.194Z,19.77
2018-04-01T02:26:24.161Z,19.78
2018-04-01T02:27:24.131Z,19.94
2018-04-01T02:28:24.206Z,19.76
2018-04-01T02:29:24.101Z,19.75
2018-04-01T02:30:24.137Z,19.93
2018-04-01T02:31:24.662Z,19.75
2018-04-01T02:32:24.158Z,19.78
2018-04-01T02:33:24.133Z,19.97
2018-04-01T02:34:24.143Z,19.77
2018-04-01T02:35:24.135Z,19.79
2018-04-01T02:36:24.188Z,19.97
2018-04-01T02:37:24.143Z,19.78
2018-04-01T02:38:24.182Z,19.81
2018-04-01T02:39:24.156Z,19.94
2018-04-01T02:40:24.167Z,19.74
2018-04-01T02:41:24.153Z,19.75
2018-04-01T02:42:24.157Z,19.94
2018-04-01T02:43:24.153Z,19.76
2018-04-01T02:44:24.129Z,19.78
2018-04-01T02:45:24.102Z,19.95
2018-04-01T02:46:24.146Z,19.75
2018-04-01T02:47:24.180Z,19.78
2018-04-01T02:48:24.125Z,19.92
2018-04-01T02:49:24.123Z,19.71
2018-04-01T02:50:24.189Z,19.77
2018-04-01T02:51:24.141Z,19.92
2018-04-01T02:52:24.131Z,19.74
2018-04-01T02:53:24.126Z,19.76
2018-04-01T02:54:24.109Z,19.93
2018-04-01T02:55:24.138Z,19.7
2018-04-01T02:56:24.134Z,19.74
2018-04-01T02:57:24.157Z,19.89
2018-04-01T02:58:24.169Z,19.72
2018-04-01T02:59:24.096Z,19.75
2018-04-01T03:00:24.090Z,19.89
2018-04-01T03:01:24.132Z,19.72
2018-04-01T03:02:24.146Z,19.76
2018-04-01T03:03:24.121Z,19.92
2018-04-01T03:04:24.115Z,19.72
2018-04-01T03:05:24.141Z,19.71
2018-04-01T03:06:24.108Z,19.87
2018-04-01T03:07:24.115Z,19.69
2018-04-01T03:08:24.115Z,19.74
2018-04-01T03:09:24.103Z,19.88
2018-04-01T03:10:24.135Z,19.69
2018-04-01T03:11:24.159Z,19.7
2018-04-01T03:12:24.106Z,19.87
2018-04-01T03:13:24.105Z,19.7
2018-04-01T03:14:24.117Z,19.75
2018-04-01T03:15:24.130Z,19.9
2018-04-01T03:16:24.136Z,19.69
2018-04-01T03:17:24.115Z,19.75
2018-04-01T03:18:24.114Z,19.88
2018-04-01T03:19:24.120Z,19.7
2018-04-01T03:20:24.112Z,19.74
2018-04-01T03:21:24.176Z,19.89
2018-04-01T03:22:24.105Z,19.68
2018-04-01T03:23:24.141Z,19.71
2018-04-01T03:24:24.111Z,19.88
2018-04-01T03:25:24.103Z,19.68
2018-04-01T03:26:24.139Z,19.7
2018-04-01T03:27:24.128Z,19.86
2018-04-01T03:28:24.140Z,19.66
2018-04-01T03:29:24.095Z,19.73
2018-04-01T03:30:24.128Z,19.88
2018-04-01T03:31:24.135Z,19.66
2018-04-01T03:32:24.108Z,19.69
2018-04-01T03:33:24.102Z,19.86
2018-04-01T03:34:24.106Z,19.64
2018-04-01T03:35:24.111Z,19.69
2018-04-01T03:36:24.113Z,19.86
2018-04-01T03:37:24.113Z,19.65
2018-04-01T03:38:24.116Z,19.69
2018-04-01T03:39:24.086Z,19.84
2018-04-01T03:40:24.097Z,19.64
2018-04-01T03:41:24.148Z,19.68
2018-04-01T03:42:24.119Z,19.84
2018-04-01T03:43:24.112Z,19.64
2018-04-01T03:44:24.115Z,19.69
2018-04-01T03:45:24.093Z,19.87
2018-04-01T03:46:24.117Z,19.67
2018-04-01T03:47:24.086Z,19.67
2018-04-01T03:48:24.085Z,19.82
2018-04-01T03:49:24.098Z,19.61
2018-04-01T03:50:24.164Z,19.63
2018-04-01T03:51:24.098Z,19.81
2018-04-01T03:52:24.184Z,19.62
2018-04-01T03:53:24.126Z,19.65
2018-04-01T03:54:24.203Z,19.82
2018-04-01T03:55:24.208Z,19.64
2018-04-01T03:56:24.077Z,19.69
2018-04-01T03:57:24.086Z,19.85
2018-04-01T03:58:24.144Z,19.66
2018-04-01T03:59:24.085Z,19.72
2018-04-01T04:00:24.385Z,19.88
2018-04-01T04:01:24.117Z,19.7
2018-04-01T04:02:24.090Z,19.74
2018-04-01T04:03:24.096Z,19.93
2018-04-01T04:04:24.138Z,19.79
2018-04-01T04:05:24.103Z,19.81
2018-04-01T04:06:24.084Z,20.02
2018-04-01T04:07:24.092Z,19.89
2018-04-01T04:08:24.144Z,19.88
2018-04-01T04:09:24.065Z,20.06
2018-04-01T04:10:24.072Z,19.91
2018-04-01T04:11:24.163Z,19.95
2018-04-01T04:12:24.096Z,20.09
2018-04-01T04:13:24.086Z,19.98
2018-04-01T04:14:24.075Z,19.97
2018-04-01T04:15:24.103Z,20.13
2018-04-01T04:16:24.094Z,20.03
2018-04-01T04:17:24.288Z,20.04
2018-04-01T04:18:24.099Z,20.18
2018-04-01T04:19:24.100Z,20.06
2018-04-01T04:20:24.099Z,20.06
2018-04-01T04:21:24.118Z,20.24
2018-04-01T04:22:24.126Z,20.14
2018-04-01T04:23:24.229Z,20.14
2018-04-01T04:24:24.095Z,20.29
2018-04-01T04:25:24.083Z,20.2
2018-04-01T04:26:24.091Z,20.17
2018-04-01T04:27:24.098Z,20.34
2018-04-01T04:28:24.097Z,20.25
2018-04-01T04:29:24.077Z,20.24
2018-04-01T04:30:24.059Z,20.38
2018-04-01T04:31:24.117Z,20.27
2018-04-01T04:32:24.099Z,20.28
2018-04-01T04:33:24.087Z,20.46
2018-04-01T04:34:24.068Z,20.31
2018-04-01T04:35:24.105Z,20.3
2018-04-01T04:36:24.064Z,20.48
2018-04-01T04:37:24.094Z,20.37
2018-04-01T04:38:24.082Z,20.39
2018-04-01T04:39:24.054Z,20.53
2018-04-01T04:40:24.111Z,20.38
2018-04-01T04:41:24.074Z,20.41
2018-04-01T04:42:24.086Z,20.55
2018-04-01T04:43:24.085Z,20.47
2018-04-01T04:44:24.124Z,20.44
2018-04-01T04:45:24.078Z,20.59
2018-04-01T04:46:24.071Z,20.46
2018-04-01T04:47:24.062Z,20.47
2018-04-01T04:48:24.076Z,20.62
2018-04-01T04:49:24.118Z,20.5
2018-04-01T04:50:24.064Z,20.51
2018-04-01T04:51:24.072Z,20.65
2018-04-01T04:52:24.106Z,20.55
2018-04-01T04:53:24.080Z,20.56
2018-04-01T04:54:24.152Z,20.71
2018-04-01T04:55:24.083Z,20.59
2018-04-01T04:56:24.189Z,20.59
2018-04-01T04:57:24.074Z,20.74
2018-04-01T04:58:24.076Z,20.63
2018-04-01T04:59:24.074Z,20.62
2018-04-01T05:00:24.080Z,20.77
2018-04-01T05:01:24.065Z,20.65
2018-04-01T05:02:24.068Z,20.63
2018-04-01T05:03:24.045Z,20.8
2018-04-01T05:04:24.056Z,20.67
2018-04-01T05:05:24.077Z,20.69
2018-04-01T05:06:24.078Z,20.83
2018-04-01T05:07:24.088Z,20.73
2018-04-01T05:08:24.324Z,20.71
2018-04-01T05:09:24.089Z,20.88
2018-04-01T05:10:24.069Z,20.77
2018-04-01T05:11:24.081Z,20.77
2018-04-01T05:12:24.074Z,20.92
2018-04-01T05:13:24.057Z,20.81
2018-04-01T05:14:24.087Z,20.8
2018-04-01T05:15:24.066Z,20.93
2018-04-01T05:16:24.080Z,20.83
2018-04-01T05:17:24.094Z,20.82
2018-04-01T05:18:24.070Z,20.96
2018-04-01T05:19:24.118Z,20.84
2018-04-01T05:20:24.134Z,20.83
2018-04-01T05:21:24.048Z,20.99
2018-04-01T05:22:24.144Z,20.87
2018-04-01T05:23:24.070Z,20.87
2018-04-01T05:24:24.059Z,21.02
2018-04-01T05:25:24.133Z,20.89
2018-04-01T05:26:24.083Z,20.87
2018-04-01T05:27:24.068Z,21.03
2018-04-01T05:28:24.043Z,20.91
2018-04-01T05:29:24.089Z,20.89
2018-04-01T05:30:24.077Z,21.03
2018-04-01T05:31:24.066Z,20.91
2018-04-01T05:32:24.051Z,20.89
2018-04-01T05:33:24.108Z,21.06
2018-04-01T05:34:24.085Z,20.94
2018-04-01T05:35:24.081Z,20.94
2018-04-01T05:36:24.071Z,21.07
2018-04-01T05:37:24.058Z,20.96
2018-04-01T05:38:24.058Z,20.95
2018-04-01T05:39:24.055Z,21.11
2018-04-01T05:40:24.174Z,21
2018-04-01T05:41:24.090Z,20.97
2018-04-01T05:42:24.048Z,21.13
2018-04-01T05:43:24.044Z,21.01
2018-04-01T05:44:24.095Z,21
2018-04-01T05:45:24.095Z,21.16
2018-04-01T05:46:24.046Z,21.04
2018-04-01T05:47:24.129Z,21.01
2018-04-01T05:48:24.057Z,21.17
2018-04-01T05:49:24.079Z,21.06
2018-04-01T05:50:24.096Z,21.03
2018-04-01T05:51:24.075Z,21.18
2018-04-01T05:52:24.073Z,21.07
2018-04-01T05:53:24.116Z,21.06
2018-04-01T05:54:24.053Z,21.21
2018-04-01T05:55:24.146Z,21.11
2018-04-01T05:56:24.226Z,21.08
2018-04-01T05:57:24.048Z,21.24
2018-04-01T05:58:24.074Z,21.12
2018-04-01T05:59:24.069Z,21.1
2018-04-01T06:00:24.041Z,21.24
2018-04-01T06:01:24.045Z,21.16
2018-04-01T06:02:24.048Z,21.13
2018-04-01T06:03:24.061Z,21.25
2018-04-01T06:04:24.041Z,21.13
2018-04-01T06:05:24.055Z,21.12
2018-04-01T06:06:24.124Z,21.28
2018-04-01T06:07:24.084Z,21.15
2018-04-01T06:08:24.056Z,21.12
2018-04-01T06:09:24.062Z,21.28
2018-04-01T06:10:24.034Z,21.18
2018-04-01T06:11:24.055Z,21.14
2018-04-01T06:12:24.036Z,21.29
2018-04-01T06:13:24.040Z,21.17
2018-04-01T06:14:24.082Z,21.16
2018-04-01T06:15:24.057Z,21.3
2018-04-01T06:16:24.042Z,21.19
2018-04-01T06:17:24.036Z,21.18
2018-04-01T06:18:24.053Z,21.33
2018-04-01T06:19:24.021Z,21.21
2018-04-01T06:20:24.080Z,21.19
2018-04-01T06:21:24.053Z,21.34
2018-04-01T06:22:24.075Z,21.24
2018-04-01T06:23:24.065Z,21.2
2018-04-01T06:24:24.040Z,21.36
2018-04-01T06:25:24.079Z,21.24
2018-04-01T06:26:24.040Z,21.23
2018-04-01T06:27:24.113Z,21.38
2018-04-01T06:28:24.058Z,21.25
2018-04-01T06:29:24.042Z,21.26
2018-04-01T06:30:24.094Z,21.39
2018-04-01T06:31:24.037Z,21.28
2018-04-01T06:32:24.053Z,21.28
2018-04-01T06:33:24.031Z,21.42
2018-04-01T06:34:24.062Z,21.33
2018-04-01T06:35:24.070Z,21.29
2018-04-01T06:36:24.022Z,21.43
2018-04-01T06:37:24.045Z,21.3
2018-04-01T06:38:24.080Z,21.3
2018-04-01T06:39:24.061Z,21.45
2018-04-01T06:40:24.219Z,21.32
2018-04-01T06:41:24.053Z,21.3
2018-04-01T06:42:24.069Z,21.44
2018-04-01T06:43:24.055Z,21.35
2018-04-01T06:44:24.061Z,21.32
2018-04-01T06:45:24.293Z,21.48
2018-04-01T06:46:24.059Z,21.36
2018-04-01T06:47:24.061Z,21.33
2018-04-01T06:48:24.035Z,21.48
2018-04-01T06:49:24.057Z,21.37
2018-04-01T06:50:24.019Z,21.35
2018-04-01T06:51:24.106Z,21.49
2018-04-01T06:52:24.037Z,21.39
2018-04-01T06:53:24.037Z,21.36
2018-04-01T06:54:24.039Z,21.51
2018-04-01T06:55:24.058Z,21.36
2018-04-01T06:56:24.122Z,21.35
2018-04-01T06:57:24.061Z,21.49
2018-04-01T06:58:24.269Z,21.37
2018-04-01T06:59:24.032Z,21.35
2018-04-01T07:00:24.062Z,21.49
2018-04-01T07:01:24.076Z,21.39
2018-04-01T07:02:24.117Z,21.36
2018-04-01T07:03:24.062Z,21.41
2018-04-01T07:04:24.008Z,21.13
2018-04-01T07:05:24.024Z,21.06
2018-04-01T07:06:24.104Z,21.21
2018-04-01T07:07:24.047Z,21.13
2018-04-01T07:08:24.013Z,21.15
2018-04-01T07:09:24.017Z,21.32
2018-04-01T07:10:24.046Z,21.23
2018-04-01T07:11:24.070Z,21.23
2018-04-01T07:12:24.041Z,21.37
2018-04-01T07:13:24.043Z,21.25
2018-04-01T07:14:24.044Z,21.27
2018-04-01T07:15:24.039Z,21.4
2018-04-01T07:16:24.036Z,21.3
2018-04-01T07:17:24.020Z,21.3
2018-04-01T07:18:24.042Z,21.39
2018-04-01T07:19:24.059Z,21.27
2018-04-01T07:20:24.031Z,21.31
2018-04-01T07:21:24.038Z,21.45
2018-04-01T07:22:24.016Z,21.34
2018-04-01T07:23:24.011Z,21.32
2018-04-01T07:24:24.076Z,21.48
2018-04-01T07:25:24.025Z,21.37
2018-04-01T07:26:24.033Z,21.38
2018-04-01T07:27:24.027Z,21.52
2018-04-01T07:28:24.055Z,21.38
2018-04-01T07:29:24.088Z,21.39
2018-04-01T07:30:24.056Z,21.54
2018-04-01T07:31:24.046Z,21.42
2018-04-01T07:32:24.038Z,21.43
2018-04-01T07:33:24.044Z,21.57
2018-04-01T07:34:24.027Z,21.43
2018-04-01T07:35:24.031Z,21.43
2018-04-01T07:36:24.045Z,21.58
2018-04-01T07:37:24.041Z,21.48
2018-04-01T07:38:24.007Z,21.45
2018-04-01T07:39:24.032Z,21.59
2018-04-01T07:40:24.023Z,21.46
2018-04-01T07:41:24.039Z,21.45
2018-04-01T07:42:24.306Z,21.6
2018-04-01T07:43:24.082Z,21.49
2018-04-01T07:44:24.042Z,21.48
2018-04-01T07:45:24.054Z,21.62
2018-04-01T07:46:24.064Z,21.49
2018-04-01T07:47:24.024Z,21.46
2018-04-01T07:48:24.060Z,21.61
2018-04-01T07:49:24.025Z,21.49
2018-04-01T07:50:24.013Z,21.47
2018-04-01T07:51:24.010Z,21.63
2018-04-01T07:52:24.043Z,21.5
2018-04-01T07:53:24.055Z,21.51
2018-04-01T07:54:24.039Z,21.62
2018-04-01T07:55:24.021Z,21.52
2018-04-01T07:56:24.098Z,21.51
2018-04-01T07:57:24.136Z,21.67
2018-04-01T07:58:24.162Z,21.54
2018-04-01T07:59:24.044Z,21.54
2018-04-01T08:00:24.091Z,21.66
2018-04-01T08:01:24.028Z,21.51
2018-04-01T08:02:24.038Z,21.49
2018-04-01T08:03:24.057Z,21.63
2018-04-01T08:04:24.044Z,21.54
2018-04-01T08:05:24.011Z,21.54
2018-04-01T08:06:24.032Z,21.7
2018-04-01T08:07:24.051Z,21.59
2018-04-01T08:08:24.000Z,21.59
2018-04-01T08:09:24.047Z,21.73
2018-04-01T08:10:24.052Z,21.61
2018-04-01T08:11:24.024Z,21.54
2018-04-01T08:12:24.045Z,21.68
2018-04-01T08:13:24.016Z,21.57
2018-04-01T08:14:24.039Z,21.57
2018-04-01T08:15:24.027Z,21.71
2018-04-01T08:16:24.011Z,21.6
2018-04-01T08:17:24.008Z,21.59
2018-04-01T08:18:24.013Z,21.74
2018-04-01T08:19:24.036Z,21.61
2018-04-01T08:20:23.993Z,21.61
2018-04-01T08:21:24.017Z,21.77
2018-04-01T08:22:24.031Z,21.64
2018-04-01T08:23:24.255Z,21.62
2018-04-01T08:24:23.984Z,21.75
2018-04-01T08:25:24.017Z,21.6
2018-04-01T08:26:23.996Z,21.6
2018-04-01T08:27:23.989Z,21.75
2018-04-01T08:28:24.020Z,21.63
2018-04-01T08:29:24.018Z,21.6
2018-04-01T08:30:24.015Z,21.75
2018-04-01T08:31:24.118Z,21.61
2018-04-01T08:32:24.007Z,21.62
2018-04-01T08:33:24.044Z,21.74
2018-04-01T08:34:24.016Z,21.64
2018-04-01T08:35:24.027Z,21.63
2018-04-01T08:36:24.052Z,21.77
2018-04-01T08:37:24.025Z,21.67
2018-04-01T08:38:24.000Z,21.63
2018-04-01T08:39:24.008Z,21.77
2018-04-01T08:40:24.000Z,21.66
2018-04-01T08:41:24.023Z,21.63
2018-04-01T08:42:24.014Z,21.78
2018-04-01T08:43:24.014Z,21.67
2018-04-01T08:44:23.989Z,21.65
2018-04-01T08:45:24.035Z,21.8
2018-04-01T08:46:24.044Z,21.68
2018-04-01T08:47:24.025Z,21.66
2018-04-01T08:48:24.041Z,21.8
2018-04-01T08:49:24.019Z,21.66
2018-04-01T08:50:24.010Z,21.68
2018-04-01T08:51:24.034Z,21.82
2018-04-01T08:52:24.037Z,21.69
2018-04-01T08:53:24.004Z,21.66
2018-04-01T08:54:24.039Z,21.82
2018-04-01T08:55:24.042Z,21.69
2018-04-01T08:56:23.984Z,21.66
2018-04-01T08:57:23.981Z,21.82
2018-04-01T08:58:24.047Z,21.7
2018-04-01T08:59:24.402Z,21.68
2018-04-01T09:00:24.020Z,21.83
2018-04-01T09:01:24.045Z,21.68
2018-04-01T09:02:24.056Z,21.65
2018-04-01T09:03:24.013Z,21.81
2018-04-01T09:04:23.977Z,21.65
2018-04-01T09:05:24.037Z,21.6
2018-04-01T09:06:24.024Z,21.77
2018-04-01T09:07:24.143Z,21.69
2018-04-01T09:08:24.567Z,21.69
2018-04-01T09:09:26.578Z,21.83
2018-04-01T09:10:24.316Z,21.73
2018-04-01T09:11:24.110Z,21.7
2018-04-01T09:12:24.025Z,21.84
2018-04-01T09:13:23.993Z,21.72
2018-04-01T09:14:23.996Z,21.71
2018-04-01T09:15:23.980Z,21.85
2018-04-01T09:16:24.037Z,21.76
2018-04-01T09:17:24.004Z,21.76
2018-04-01T09:18:24.003Z,21.88
2018-04-01T09:19:23.992Z,21.75
2018-04-01T09:20:23.981Z,21.75
2018-04-01T09:21:24.033Z,21.89
2018-04-01T09:22:24.015Z,21.82
2018-04-01T09:23:23.993Z,21.8
2018-04-01T09:24:24.000Z,21.92
2018-04-01T09:25:23.978Z,21.83
2018-04-01T09:26:24.000Z,21.83
2018-04-01T09:27:23.986Z,21.96
2018-04-01T09:28:23.982Z,21.86
2018-04-01T09:29:24.002Z,21.85
2018-04-01T09:30:23.971Z,21.96
2018-04-01T09:31:23.969Z,21.87
2018-04-01T09:32:24.034Z,21.88
2018-04-01T09:33:24.042Z,22
2018-04-01T09:34:23.963Z,21.9
2018-04-01T09:35:23.979Z,21.89
2018-04-01T09:36:24.004Z,21.92
2018-04-01T09:37:24.020Z,21.77
2018-04-01T09:38:24.011Z,21.83
2018-04-01T09:39:23.987Z,22
2018-04-01T09:40:23.974Z,21.89
2018-04-01T09:41:23.986Z,21.9
2018-04-01T09:42:24.009Z,22.05
2018-04-01T09:43:23.974Z,21.88
2018-04-01T09:44:24.064Z,21.87
2018-04-01T09:45:23.978Z,21.88
2018-04-01T09:46:24.007Z,21.82
2018-04-01T09:47:24.140Z,21.88
2018-04-01T09:48:23.976Z,22
2018-04-01T09:49:24.049Z,21.89
2018-04-01T09:50:24.051Z,21.83
2018-04-01T09:51:23.989Z,21.97
2018-04-01T09:52:24.017Z,21.74
2018-04-01T09:53:23.975Z,21.72
2018-04-01T09:54:25.680Z,21.94
2018-04-01T09:55:23.988Z,21.83
2018-04-01T09:56:24.077Z,21.84
2018-04-01T09:57:24.124Z,21.99
2018-04-01T09:58:24.087Z,21.87
2018-04-01T09:59:23.993Z,21.86
2018-04-01T10:00:23.981Z,21.87
2018-04-01T10:01:23.982Z,21.82
2018-04-01T10:02:23.989Z,21.84
2018-04-01T10:03:24.231Z,21.97
2018-04-01T10:04:24.005Z,21.82
2018-04-01T10:05:23.958Z,21.86
2018-04-01T10:06:23.998Z,21.99
2018-04-01T10:07:23.991Z,21.85
2018-04-01T10:08:23.978Z,21.87
2018-04-01T10:09:23.983Z,22
2018-04-01T10:10:23.976Z,21.86
2018-04-01T10:11:25.216Z,21.85
2018-04-01T10:12:23.991Z,21.98
2018-04-01T10:13:29.065Z,21.85
2018-04-01T10:14:23.980Z,21.85
2018-04-01T10:15:23.990Z,21.96
2018-04-01T10:16:23.962Z,21.84
2018-04-01T10:17:23.969Z,21.85
2018-04-01T10:18:23.993Z,21.96
2018-04-01T10:19:24.679Z,21.84
2018-04-01T10:20:23.963Z,21.83
2018-04-01T10:21:23.999Z,21.97
2018-04-01T10:22:23.985Z,21.83
2018-04-01T10:23:24.031Z,21.83
2018-04-01T10:24:23.962Z,21.94
2018-04-01T10:25:23.999Z,21.83
2018-04-01T10:26:24.009Z,21.83
2018-04-01T10:27:24.032Z,21.96
2018-04-01T10:28:23.999Z,21.83
2018-04-01T10:29:23.977Z,21.73
2018-04-01T10:30:23.991Z,21.91
2018-04-01T10:31:23.992Z,21.8
2018-04-01T10:32:23.984Z,21.81
2018-04-01T10:33:23.981Z,21.95
2018-04-01T10:34:23.971Z,21.79
2018-04-01T10:35:24.043Z,21.78
2018-04-01T10:36:23.976Z,21.96
2018-04-01T10:37:23.976Z,21.77
2018-04-01T10:38:23.985Z,21.83
2018-04-01T10:39:23.987Z,22.01
2018-04-01T10:40:23.981Z,21.9
2018-04-01T10:41:23.986Z,21.85
2018-04-01T10:42:23.984Z,22.02
2018-04-01T10:43:24.363Z,21.88
2018-04-01T10:44:23.954Z,21.9
2018-04-01T10:45:23.986Z,22.06
2018-04-01T10:46:23.956Z,21.95
2018-04-01T10:47:23.979Z,21.94
2018-04-01T10:48:24.062Z,22.03
2018-04-01T10:49:24.106Z,21.95
2018-04-01T10:50:23.957Z,21.94
2018-04-01T10:51:23.975Z,22.11
2018-04-01T10:52:23.975Z,22.03
2018-04-01T10:53:23.962Z,22.01
2018-04-01T10:54:23.972Z,22.18
2018-04-01T10:55:23.981Z,22.06
2018-04-01T10:56:23.972Z,22.06
2018-04-01T10:57:23.982Z,22.21
2018-04-01T10:58:23.994Z,22.11
2018-04-01T10:59:24.006Z,22.09
2018-04-01T11:00:23.968Z,22.23
2018-04-01T11:01:23.962Z,22.12
2018-04-01T11:02:23.950Z,22.09
2018-04-01T11:03:24.014Z,22.26
2018-04-01T11:04:23.983Z,22.1
2018-04-01T11:05:23.790Z,22.1
2018-04-01T11:06:24.022Z,22.25
2018-04-01T11:07:24.019Z,22.15
2018-04-01T11:08:23.976Z,22.13
2018-04-01T11:09:23.958Z,22.27
2018-04-01T11:10:23.974Z,22.15
2018-04-01T11:11:24.285Z,22.15
2018-04-01T11:12:23.952Z,22.28
2018-04-01T11:13:23.996Z,22.16
2018-04-01T11:14:23.963Z,22.14
2018-04-01T11:15:23.982Z,22.27
2018-04-01T11:16:23.960Z,22.15
2018-04-01T11:17:23.981Z,22.14
2018-04-01T11:18:24.005Z,22.27
2018-04-01T11:19:23.972Z,22.12
2018-04-01T11:20:23.973Z,22.15
2018-04-01T11:21:23.952Z,22.29
2018-04-01T11:22:23.962Z,22.16
2018-04-01T11:23:23.948Z,22.16
2018-04-01T11:24:23.977Z,22.3
2018-04-01T11:25:24.079Z,22.16
2018-04-01T11:26:24.070Z,22.15
2018-04-01T11:27:23.969Z,22.3
2018-04-01T11:28:23.999Z,22.17
2018-04-01T11:29:23.961Z,22.15
2018-04-01T11:30:23.966Z,22.29
2018-04-01T11:31:23.961Z,22.16
2018-04-01T11:32:23.967Z,22.16
2018-04-01T11:33:23.945Z,22.28
2018-04-01T11:34:23.985Z,22.16
2018-04-01T11:35:23.946Z,22.11
2018-04-01T11:36:24.031Z,22.26
2018-04-01T11:37:24.054Z,22.1
2018-04-01T11:38:23.955Z,22.14
2018-04-01T11:39:23.968Z,22.26
2018-04-01T11:40:23.993Z,22.12
2018-04-01T11:41:23.958Z,22.13
2018-04-01T11:42:23.938Z,22.25
2018-04-01T11:43:23.965Z,22.12
2018-04-01T11:44:24.010Z,22.11
2018-04-01T11:45:23.948Z,22.23
2018-04-01T11:46:23.962Z,22.09
2018-04-01T11:47:23.955Z,22.07
2018-04-01T11:48:23.956Z,22.19
2018-04-01T11:49:23.975Z,22.07
2018-04-01T11:50:23.950Z,22.08
2018-04-01T11:51:23.949Z,22.22
2018-04-01T11:52:23.954Z,22.06
2018-04-01T11:53:23.951Z,22.06
2018-04-01T11:54:23.920Z,22.21
2018-04-01T11:55:24.003Z,22.06
2018-04-01T11:56:23.933Z,22.07
2018-04-01T11:57:23.951Z,22.2
2018-04-01T11:58:24.054Z,22.04
2018-04-01T11:59:24.059Z,22.05
2018-04-01T12:00:23.964Z,22.17
2018-04-01T12:01:23.963Z,22.06
2018-04-01T12:02:23.946Z,22.04
2018-04-01T12:03:23.939Z,22.16
2018-04-01T12:04:23.926Z,22.03
2018-04-01T12:05:23.945Z,22.01
2018-04-01T12:06:23.978Z,22.12
2018-04-01T12:07:23.952Z,21.99
2018-04-01T12:08:23.983Z,21.98
2018-04-01T12:09:23.927Z,22.11
2018-04-01T12:10:23.917Z,21.94
2018-04-01T12:11:24.030Z,21.93
2018-04-01T12:12:23.940Z,22.09
2018-04-01T12:13:23.958Z,21.96
2018-04-01T12:14:24.243Z,21.95
2018-04-01T12:15:23.950Z,22.06
2018-04-01T12:16:24.194Z,21.94
2018-04-01T12:17:23.978Z,21.94
2018-04-01T12:18:23.942Z,22.05
2018-04-01T12:19:23.936Z,21.91
2018-04-01T12:20:23.963Z,21.91
2018-04-01T12:21:23.957Z,22.06
2018-04-01T12:22:23.966Z,21.94
2018-04-01T12:23:23.927Z,21.92
2018-04-01T12:24:23.942Z,22.05
2018-04-01T12:25:23.925Z,21.94
2018-04-01T12:26:23.930Z,21.92
2018-04-01T12:27:23.965Z,22.04
2018-04-01T12:28:23.959Z,21.93
2018-04-01T12:29:23.942Z,21.91
2018-04-01T12:30:23.934Z,22.06
2018-04-01T12:31:23.953Z,21.92
2018-04-01T12:32:23.923Z,21.93
2018-04-01T12:33:23.949Z,22.08
2018-04-01T12:34:23.943Z,21.95
2018-04-01T12:35:23.930Z,21.92
2018-04-01T12:36:23.953Z,22.07
2018-04-01T12:37:23.957Z,21.95
2018-04-01T12:38:23.938Z,21.95
2018-04-01T12:39:24.003Z,22.1
2018-04-01T12:40:23.952Z,21.94
2018-04-01T12:41:23.923Z,21.95
2018-04-01T12:42:23.976Z,22.09
2018-04-01T12:43:23.925Z,21.98
2018-04-01T12:44:23.920Z,21.95
2018-04-01T12:45:23.914Z,22.1
2018-04-01T12:46:23.921Z,21.97
2018-04-01T12:47:23.915Z,21.96
2018-04-01T12:48:23.956Z,22.11
2018-04-01T12:49:26.103Z,21.99
2018-04-01T12:50:23.917Z,21.9
2018-04-01T12:51:23.950Z,22.1
2018-04-01T12:52:23.963Z,22
2018-04-01T12:53:23.906Z,22.02
2018-04-01T12:54:23.942Z,22.13
2018-04-01T12:55:23.922Z,22.06